createdAt,value
2019-05-10T00:01:16.095Z,98357.25
2019-05-10T00:04:06.333Z,98360.20
2019-05-10T00:06:57.036Z,98361.23
2019-05-10T00:09:27.710Z,98361.23
2019-05-10T00:12:14.868Z,98377.50
2019-05-10T00:14:51.768Z,98382.70
2019-05-10T00:17:24.604Z,98383.36
2019-05-10T00:19:56.396Z,98383.36
2019-05-10T00:22:28.282Z,98379.65
2019-05-10T00:25:04.291Z,98379.65
2019-05-10T00:27:33.593Z,98397.43
2019-05-10T00:30:05.796Z,98397.43
2019-05-10T00:32:37.408Z,98400.42
2019-05-10T00:35:11.196Z,98402.78
2019-05-10T00:37:43.395Z,98397.88
2019-05-10T00:40:15.041Z,98407.66
2019-05-10T00:42:46.686Z,98407.66
2019-05-10T00:45:18.345Z,98407.05
2019-05-10T00:47:49.680Z,98406.55
2019-05-10T00:50:22.154Z,98412.53
2019-05-10T00:52:53.889Z,98412.53
2019-05-10T00:55:25.861Z,98416.09
2019-05-10T00:57:57.911Z,98416.63
2019-05-10T01:00:29.466Z,98418.84
2019-05-10T01:03:01.018Z,98418.84
2019-05-10T01:05:32.858Z,98435.53
2019-05-10T01:08:04.807Z,98436.52
2019-05-10T01:10:36.552Z,98434.73
2019-05-10T01:13:08.481Z,98438.37
2019-05-10T01:15:40.373Z,98440.53
2019-05-10T01:18:12.198Z,98435.99
2019-05-10T01:20:43.979Z,98442.70
2019-05-10T01:23:15.893Z,98443.19
2019-05-10T01:25:47.437Z,98446.06
2019-05-10T01:28:19.639Z,98446.06
2019-05-10T01:30:51.535Z,98447.70
2019-05-10T01:33:23.276Z,98454.42
2019-05-10T01:35:55.021Z,98454.42
2019-05-10T01:38:26.890Z,98452.05
2019-05-10T01:40:58.925Z,98456.39
2019-05-10T01:43:30.634Z,98461.20
2019-05-10T01:46:02.592Z,98470.72
2019-05-10T01:48:34.314Z,98474.97
2019-05-10T01:51:06.022Z,98465.07
2019-05-10T01:53:37.825Z,98469.20
2019-05-10T01:56:09.869Z,98469.20
2019-05-10T01:58:41.752Z,98473.82
2019-05-10T02:01:13.566Z,98479.81
2019-05-10T02:03:45.329Z,98479.81
2019-05-10T02:06:17.357Z,98487.87
2019-05-10T02:08:49.124Z,98487.87
2019-05-10T02:11:21.721Z,98494.69
2019-05-10T02:13:53.605Z,98496.92
2019-05-10T02:16:26.376Z,98496.09
2019-05-10T02:18:58.085Z,98501.65
2019-05-10T02:21:29.608Z,98501.65
2019-05-10T02:24:01.759Z,98504.01
2019-05-10T02:26:33.218Z,98507.47
2019-05-10T02:29:05.324Z,98515.55
2019-05-10T02:31:37.299Z,98515.55
2019-05-10T02:34:10.389Z,98518.72
2019-05-10T02:36:42.096Z,98519.44
2019-05-10T02:39:14.086Z,98519.44
2019-05-10T02:41:46.344Z,98521.88
2019-05-10T02:44:18.192Z,98525.67
2019-05-10T02:46:49.684Z,98528.12
2019-05-10T02:49:21.857Z,98534.52
2019-05-10T02:51:53.503Z,98534.52
2019-05-10T02:54:25.423Z,98538.25
2019-05-10T02:56:57.528Z,98532.77
2019-05-10T02:59:32.705Z,98534.31
2019-05-10T03:02:07.073Z,98540.88
2019-05-10T03:04:39.137Z,98540.88
2019-05-10T03:07:11.370Z,98542.14
2019-05-10T03:09:44.910Z,98544.55
2019-05-10T03:12:25.329Z,98551.66
2019-05-10T03:14:58.514Z,98548.77
2019-05-10T03:17:30.499Z,98559.55
2019-05-10T03:20:03.003Z,98561.35
2019-05-10T03:22:39.884Z,98561.35
2019-05-10T03:25:11.948Z,98568.84
2019-05-10T03:27:43.499Z,98577.02
2019-05-10T03:30:15.853Z,98577.02
2019-05-10T03:32:47.554Z,98570.01
2019-05-10T03:35:19.338Z,98569.85
2019-05-10T03:37:51.252Z,98575.27
2019-05-10T03:40:23.284Z,98572.85
2019-05-10T03:42:55.121Z,98575.20
2019-05-10T03:45:26.540Z,98574.92
2019-05-10T03:47:58.533Z,98570.58
2019-05-10T03:50:30.360Z,98570.58
2019-05-10T03:53:02.529Z,98582.47
2019-05-10T03:55:34.323Z,98586.89
2019-05-10T03:58:06.124Z,98590.48
2019-05-10T04:00:38.159Z,98590.48
2019-05-10T04:03:10.093Z,98583.31
2019-05-10T04:05:41.623Z,98591.25
2019-05-10T04:08:13.250Z,98592.95
2019-05-10T04:10:44.889Z,98592.95
2019-05-10T04:13:16.577Z,98599.34
2019-05-10T04:15:48.806Z,98592.08
2019-05-10T04:18:20.584Z,98598.27
2019-05-10T04:20:52.444Z,98595.39
2019-05-10T04:23:24.097Z,98599.91
2019-05-10T04:25:55.727Z,98599.73
2019-05-10T04:28:27.960Z,98587.71
2019-05-10T04:30:59.858Z,98582.41
2019-05-10T04:33:32.024Z,98582.41
2019-05-10T04:36:03.572Z,98584.59
2019-05-10T04:38:38.560Z,98584.59
2019-05-10T04:41:10.613Z,98579.81
2019-05-10T04:43:42.171Z,98579.81
2019-05-10T04:46:14.093Z,98586.75
2019-05-10T04:48:45.947Z,98590.25
2019-05-10T04:51:17.805Z,98590.25
2019-05-10T04:53:49.766Z,98586.19
2019-05-10T04:56:21.427Z,98583.53
2019-05-10T04:58:53.177Z,98583.53
2019-05-10T05:01:25.405Z,98578.79
2019-05-10T05:03:57.069Z,98578.84
2019-05-10T05:06:29.059Z,98581.59
2019-05-10T05:09:01.029Z,98581.59
2019-05-10T05:11:32.916Z,98562.77
2019-05-10T05:14:09.082Z,98562.77
2019-05-10T05:16:38.215Z,98573.34
2019-05-10T05:19:10.247Z,98576.21
2019-05-10T05:21:42.232Z,98573.81
2019-05-10T05:24:16.842Z,98573.81
2019-05-10T05:26:47.823Z,98570.48
2019-05-10T05:29:19.961Z,98563.12
2019-05-10T05:31:53.995Z,98568.05
2019-05-10T05:34:25.932Z,98568.05
2019-05-10T05:36:57.825Z,98569.95
2019-05-10T05:39:29.543Z,98566.64
2019-05-10T05:42:02.327Z,98564.88
2019-05-10T05:44:34.014Z,98565.45
2019-05-10T05:47:05.787Z,98573.58
2019-05-10T05:49:37.815Z,98573.16
2019-05-10T05:52:09.391Z,98578.12
2019-05-10T05:54:52.895Z,98565.08
2019-05-10T05:57:27.457Z,98564.21
2019-05-10T06:00:04.138Z,98570.47
2019-05-10T06:02:43.971Z,98570.47
2019-05-10T06:05:10.966Z,98565.18
2019-05-10T06:07:52.570Z,98565.18
2019-05-10T06:10:25.003Z,98555.39
2019-05-10T06:13:03.312Z,98555.39
2019-05-10T06:15:35.420Z,98547.52
2019-05-10T06:18:10.146Z,98547.52
2019-05-10T06:20:46.707Z,98550.64
2019-05-10T06:23:17.952Z,98544.12
2019-05-10T06:25:49.803Z,98533.97
2019-05-10T06:28:26.838Z,98537.01
2019-05-10T06:30:57.516Z,98537.01
2019-05-10T06:33:30.913Z,98537.86
2019-05-10T06:36:02.306Z,98525.28
2019-05-10T06:38:34.078Z,98525.28
2019-05-10T06:41:10.167Z,98520.64
2019-05-10T06:43:40.622Z,98520.52
2019-05-10T06:46:12.381Z,98520.52
2019-05-10T06:48:45.153Z,98518.10
2019-05-10T06:51:16.655Z,98525.66
2019-05-10T06:53:53.595Z,98525.66
2019-05-10T06:56:23.035Z,98521.77
2019-05-10T06:59:12.273Z,98511.55
2019-05-10T07:01:31.792Z,98505.84
2019-05-10T07:04:03.315Z,98505.84
2019-05-10T07:06:35.216Z,98509.53
2019-05-10T07:09:14.724Z,98505.47
2019-05-10T07:11:46.448Z,98505.47
2019-05-10T07:14:18.166Z,98496.30
2019-05-10T07:16:50.157Z,98496.30
2019-05-10T07:19:21.844Z,98490.42
2019-05-10T07:21:53.619Z,98487.55
2019-05-10T07:24:27.101Z,98487.55
2019-05-10T07:27:02.108Z,98475.27
2019-05-10T07:29:43.774Z,98477.84
2019-05-10T07:32:16.546Z,98472.60
2019-05-10T07:34:56.069Z,98472.60
2019-05-10T07:37:27.645Z,98458.72
2019-05-10T07:40:09.507Z,98450.72
2019-05-10T07:42:45.530Z,98442.64
2019-05-10T07:45:18.730Z,98442.64
2019-05-10T07:47:52.276Z,98434.85
2019-05-10T07:50:34.563Z,98433.88
2019-05-10T07:53:06.606Z,98433.88
2019-05-10T07:55:39.860Z,98422.89
2019-05-10T07:58:12.297Z,98422.89
2019-05-10T08:00:45.043Z,98421.89
2019-05-10T08:03:23.935Z,98419.38
2019-05-10T08:06:01.800Z,98419.38
2019-05-10T08:08:31.228Z,98419.09
2019-05-10T08:11:03.255Z,98420.78
2019-05-10T08:13:39.337Z,98418.86
2019-05-10T08:16:18.915Z,98425.36
2019-05-10T08:18:45.274Z,98412.16
2019-05-10T08:21:22.429Z,98406.88
2019-05-10T08:23:54.091Z,98395.64
2019-05-10T08:26:25.926Z,98401.88
2019-05-10T08:29:02.171Z,98401.88
2019-05-10T08:31:40.325Z,98396.09
2019-05-10T08:34:28.806Z,98396.48
2019-05-10T08:36:58.699Z,98396.48
2019-05-10T08:39:45.657Z,98386.07
2019-05-10T08:42:32.127Z,98386.07
2019-05-10T08:44:53.745Z,98374.00
2019-05-10T08:47:27.683Z,98370.97
2019-05-10T08:50:18.664Z,98365.91
2019-05-10T08:52:35.921Z,98373.03
2019-05-10T08:55:12.114Z,98373.03
2019-05-10T08:57:47.765Z,98367.80
2019-05-10T09:00:17.478Z,98366.90
2019-05-10T09:02:49.211Z,98362.22
2019-05-10T09:05:28.826Z,98346.02
2019-05-10T09:08:05.624Z,98346.02
2019-05-10T09:10:42.155Z,98345.22
2019-05-10T09:13:23.331Z,98347.08
2019-05-10T09:15:56.985Z,98334.69
2019-05-10T09:18:28.888Z,98333.10
2019-05-10T09:21:08.474Z,98333.10
2019-05-10T09:23:35.911Z,98335.04
2019-05-10T09:26:10.579Z,98328.07
2019-05-10T09:28:42.141Z,98319.50
2019-05-10T09:31:21.360Z,98323.74
2019-05-10T09:33:49.592Z,98319.05
2019-05-10T09:36:23.058Z,98312.63
2019-05-10T09:38:55.483Z,98300.92
2019-05-10T09:41:32.806Z,98302.37
2019-05-10T09:44:03.013Z,98293.68
2019-05-10T09:46:35.814Z,98294.56
2019-05-10T09:49:15.530Z,98281.31
2019-05-10T09:51:42.260Z,98284.61
2019-05-10T09:54:14.204Z,98279.39
2019-05-10T09:56:51.745Z,98276.46
2019-05-10T09:59:19.113Z,98270.48
2019-05-10T10:01:51.010Z,98271.23
2019-05-10T10:04:22.929Z,98251.37
2019-05-10T10:06:54.796Z,98256.55
2019-05-10T10:09:33.852Z,98254.45
2019-05-10T10:12:03.100Z,98254.45
2019-05-10T10:14:39.340Z,98249.55
2019-05-10T10:17:08.295Z,98243.14
2019-05-10T10:19:40.739Z,98243.14
2019-05-10T10:22:13.241Z,98239.95
2019-05-10T10:24:48.932Z,98230.13
2019-05-10T10:27:18.619Z,98228.38
2019-05-10T10:29:50.358Z,98228.38
2019-05-10T10:32:24.655Z,98227.45
2019-05-10T10:34:57.679Z,98223.45
2019-05-10T10:37:31.288Z,98223.45
2019-05-10T10:40:05.379Z,98228.62
2019-05-10T10:42:38.083Z,98210.69
2019-05-10T10:45:10.188Z,98213.17
2019-05-10T10:47:41.885Z,98216.20
2019-05-10T10:50:13.907Z,98216.20
2019-05-10T10:52:45.471Z,98204.09
2019-05-10T10:55:18.706Z,98201.46
2019-05-10T10:57:50.848Z,98206.55
2019-05-10T11:00:34.772Z,98206.55
2019-05-10T11:03:07.216Z,98204.97
2019-05-10T11:05:38.809Z,98191.73
2019-05-10T11:08:11.461Z,98188.22
2019-05-10T11:10:43.163Z,98188.22
2019-05-10T11:13:20.509Z,98183.93
2019-05-10T11:15:48.476Z,98178.64
2019-05-10T11:18:21.615Z,98178.64
2019-05-10T11:20:54.192Z,98178.36
2019-05-10T11:23:34.249Z,98178.36
2019-05-10T11:26:01.333Z,98180.47
2019-05-10T11:28:38.664Z,98180.36
2019-05-10T11:31:06.826Z,98172.59
2019-05-10T11:33:41.134Z,98172.01
2019-05-10T11:36:11.934Z,98172.01
2019-05-10T11:38:46.976Z,98170.43
2019-05-10T11:41:22.054Z,98170.98
2019-05-10T11:43:51.409Z,98170.98
2019-05-10T11:46:23.406Z,98169.34
2019-05-10T11:48:55.229Z,98162.28
2019-05-10T11:51:27.166Z,98162.28
2019-05-10T11:53:59.800Z,98163.41
2019-05-10T11:56:32.239Z,98155.98
2019-05-10T11:59:05.416Z,98154.47
2019-05-10T12:01:41.466Z,98152.52
2019-05-10T12:04:13.157Z,98152.59
2019-05-10T12:06:49.889Z,98152.59
2019-05-10T12:09:18.162Z,98150.37
2019-05-10T12:11:56.455Z,98152.66
2019-05-10T12:14:23.342Z,98154.66
2019-05-10T12:16:54.954Z,98154.66
2019-05-10T12:19:26.429Z,98151.89
2019-05-10T12:21:58.461Z,98157.41
2019-05-10T12:24:45.281Z,98156.05
2019-05-10T12:27:18.590Z,98156.05
2019-05-10T12:29:37.466Z,98164.15
2019-05-10T12:32:10.420Z,98162.16
2019-05-10T12:34:46.020Z,98162.16
2019-05-10T12:37:15.784Z,98165.16
2019-05-10T12:42:25.357Z,98168.39
2019-05-10T12:44:57.018Z,98170.97
2019-05-10T12:47:30.969Z,98170.97
2019-05-10T12:50:03.531Z,98175.97
2019-05-10T12:52:35.653Z,98179.23
2019-05-10T12:55:08.126Z,98179.23
2019-05-10T12:57:43.168Z,98186.22
2019-05-10T13:00:16.007Z,98183.06
2019-05-10T13:02:51.860Z,98202.47
2019-05-10T13:05:31.297Z,98202.47
2019-05-10T13:07:55.055Z,98206.12
2019-05-10T13:10:26.840Z,98206.12
2019-05-10T13:12:58.714Z,98216.59
2019-05-10T13:15:31.539Z,98219.70
2019-05-10T13:18:04.101Z,98227.28
2019-05-10T13:20:36.716Z,98231.81
2019-05-10T13:23:10.155Z,98239.83
2019-05-10T13:25:44.139Z,98236.39
2019-05-10T13:28:15.663Z,98248.81
2019-05-10T13:30:47.307Z,98254.92
2019-05-10T13:33:28.694Z,98254.92
2019-05-10T13:35:56.658Z,98265.87
2019-05-10T13:38:25.738Z,98265.87
2019-05-10T13:40:57.634Z,98264.08
2019-05-10T13:43:29.121Z,98266.93
2019-05-10T13:46:00.642Z,98272.69
2019-05-10T13:48:32.455Z,98277.37
2019-05-10T13:51:03.855Z,98277.59
2019-05-10T13:53:37.240Z,98281.97
2019-05-10T13:56:09.436Z,98289.33
2019-05-10T13:58:41.230Z,98289.33
2019-05-10T14:01:14.696Z,98290.58
2019-05-10T14:03:53.723Z,98293.15
2019-05-10T14:06:19.554Z,98293.98
2019-05-10T14:08:52.278Z,98301.55
2019-05-10T14:11:23.855Z,98314.90
2019-05-10T14:13:55.669Z,98314.25
2019-05-10T14:16:27.368Z,98314.25
2019-05-10T14:18:59.052Z,98324.80
2019-05-10T14:21:30.571Z,98330.41
2019-05-10T14:24:02.263Z,98330.41
2019-05-10T14:26:34.334Z,98336.75
2019-05-10T14:29:05.903Z,98339.66
2019-05-10T14:31:37.635Z,98343.70
2019-05-10T14:34:16.205Z,98343.70
2019-05-10T14:36:43.529Z,98356.03
2019-05-10T14:39:15.233Z,98356.03
2019-05-10T14:41:50.714Z,98359.55
2019-05-10T14:44:20.506Z,98365.31
2019-05-10T14:46:51.850Z,98365.31
2019-05-10T14:49:23.204Z,98372.95
2019-05-10T14:51:59.019Z,98374.28
2019-05-10T14:54:42.293Z,98374.28
2019-05-10T14:57:01.847Z,98384.88
2019-05-10T14:59:33.567Z,98384.88
2019-05-10T15:02:05.179Z,98383.39
2019-05-10T15:04:46.422Z,98387.95
2019-05-10T15:07:14.494Z,98387.95
2019-05-10T15:09:43.779Z,98396.76
2019-05-10T15:12:16.368Z,98396.99
2019-05-10T15:14:48.871Z,98396.99
2019-05-10T15:17:20.621Z,98402.91
2019-05-10T15:19:57.380Z,98402.91
2019-05-10T15:22:25.977Z,98402.60
2019-05-10T15:24:57.688Z,98411.20
2019-05-10T15:27:29.555Z,98411.20
2019-05-10T15:30:05.194Z,98414.71
2019-05-10T15:32:34.032Z,98421.80
2019-05-10T15:35:09.012Z,98419.27
2019-05-10T15:37:45.487Z,98423.30
2019-05-10T15:40:14.490Z,98425.47
2019-05-10T15:42:45.961Z,98431.22
2019-05-10T15:45:19.489Z,98431.16
2019-05-10T15:47:52.325Z,98433.64
2019-05-10T15:50:24.939Z,98435.12
2019-05-10T15:52:56.684Z,98437.06
2019-05-10T15:55:28.901Z,98441.25
2019-05-10T15:58:01.577Z,98433.91
2019-05-10T16:00:39.202Z,98441.77
2019-05-10T16:03:07.094Z,98440.58
2019-05-10T16:05:43.586Z,98450.30
2019-05-10T16:08:13.750Z,98450.30
2019-05-10T16:10:46.282Z,98444.09
2019-05-10T16:13:23.427Z,98449.41
2019-05-10T16:15:51.639Z,98453.27
2019-05-10T16:18:23.990Z,98453.27
2019-05-10T16:20:55.515Z,98452.34
2019-05-10T16:23:26.980Z,98453.37
2019-05-10T16:25:58.650Z,98453.69
2019-05-10T16:28:30.740Z,98450.53
2019-05-10T16:31:02.391Z,98450.53
2019-05-10T16:33:33.813Z,98454.98
2019-05-10T16:36:08.270Z,98456.17
2019-05-10T16:38:38.863Z,98458.34
2019-05-10T16:41:10.242Z,98455.02
2019-05-10T16:43:41.792Z,98451.25
2019-05-10T16:46:13.266Z,98458.28
2019-05-10T16:48:44.837Z,98454.12
2019-05-10T16:51:16.452Z,98454.57
2019-05-10T16:53:47.919Z,98455.46
2019-05-10T16:56:21.241Z,98452.61
2019-05-10T16:58:58.943Z,98449.87
2019-05-10T17:01:29.100Z,98453.67
2019-05-10T17:04:01.843Z,98453.67
2019-05-10T17:06:35.330Z,98460.52
2019-05-10T17:09:27.774Z,98460.48
2019-05-10T17:11:59.392Z,98460.75
2019-05-10T17:14:30.968Z,98457.83
2019-05-10T17:17:02.603Z,98457.83
2019-05-10T17:19:36.105Z,98485.41
2019-05-10T17:22:07.895Z,98485.41
2019-05-10T17:24:39.296Z,98489.67
2019-05-10T17:27:10.979Z,98499.56
2019-05-10T17:29:44.650Z,98502.45
2019-05-10T17:32:18.548Z,98502.45
2019-05-10T17:34:49.630Z,98499.59
2019-05-10T17:37:21.225Z,98499.59
2019-05-10T17:39:53.746Z,98497.52
2019-05-10T17:42:25.535Z,98497.52
2019-05-10T17:45:01.805Z,98497.63
2019-05-10T17:47:32.359Z,98497.63
2019-05-10T17:50:11.568Z,98499.07
2019-05-10T17:52:43.412Z,98501.38
2019-05-10T17:55:16.760Z,98494.61
2019-05-10T17:57:54.351Z,98496.52
2019-05-10T18:00:42.666Z,98496.56
2019-05-10T18:03:14.212Z,98499.30
2019-05-10T18:05:46.688Z,98499.30
2019-05-10T18:08:19.370Z,98501.47
2019-05-10T18:10:51.113Z,98495.39
2019-05-10T18:13:22.464Z,98506.45
2019-05-10T18:15:55.021Z,98506.45
2019-05-10T18:18:26.687Z,98503.58
2019-05-10T18:21:00.702Z,98503.12
2019-05-10T18:23:32.564Z,98503.78
2019-05-10T18:26:04.126Z,98505.95
2019-05-10T18:28:36.831Z,98505.92
2019-05-10T18:31:08.905Z,98515.52
2019-05-10T18:33:44.260Z,98515.52
2019-05-10T18:36:13.965Z,98507.48
2019-05-10T18:38:45.607Z,98513.41
2019-05-10T18:41:17.356Z,98513.41
2019-05-10T18:43:48.820Z,98515.95
2019-05-10T18:46:20.437Z,98513.28
2019-05-10T18:48:51.814Z,98513.20
2019-05-10T18:51:24.545Z,98516.66
2019-05-10T18:53:57.858Z,98516.66
2019-05-10T18:56:31.425Z,98522.41
2019-05-10T18:59:07.542Z,98521.17
2019-05-10T19:01:38.647Z,98521.91
2019-05-10T19:04:14.029Z,98521.91
2019-05-10T19:06:49.561Z,98526.67
2019-05-10T19:09:17.527Z,98527.34
2019-05-10T19:11:49.399Z,98528.27
2019-05-10T19:14:23.944Z,98533.84
2019-05-10T19:16:54.136Z,98539.61
2019-05-10T19:19:25.858Z,98534.88
2019-05-10T19:21:57.724Z,98534.88
2019-05-10T19:24:30.494Z,98541.02
2019-05-10T19:27:07.304Z,98539.99
2019-05-10T19:29:38.876Z,98539.99
2019-05-10T19:32:11.651Z,98531.18
2019-05-10T19:34:42.465Z,98528.97
2019-05-10T19:37:28.451Z,98528.97
2019-05-10T19:39:48.075Z,98521.41
2019-05-10T19:42:22.495Z,98517.20
2019-05-10T19:44:53.999Z,98522.64
2019-05-10T19:47:25.979Z,98522.64
2019-05-10T19:49:57.579Z,98513.89
2019-05-10T19:52:29.120Z,98500.89
2019-05-10T19:55:01.685Z,98499.09
2019-05-10T19:57:33.406Z,98497.79
2019-05-10T20:00:04.918Z,98488.56
2019-05-10T20:02:36.454Z,98488.56
2019-05-10T20:05:11.212Z,98475.81
2019-05-10T20:07:46.244Z,98475.17
2019-05-10T20:10:16.362Z,98485.92
2019-05-10T20:12:47.955Z,98484.71
2019-05-10T20:15:21.398Z,98482.39
2019-05-10T20:17:53.133Z,98482.39
2019-05-10T20:20:24.492Z,98482.17
2019-05-10T20:22:55.808Z,98476.13
2019-05-10T20:25:27.417Z,98480.77
2019-05-10T20:27:59.123Z,98480.77
2019-05-10T20:30:30.635Z,98480.06
2019-05-10T20:33:02.450Z,98482.97
2019-05-10T20:35:34.269Z,98486.34
2019-05-10T20:38:05.815Z,98486.34
2019-05-10T20:40:37.714Z,98477.51
2019-05-10T20:43:09.404Z,98470.90
2019-05-10T20:45:40.968Z,98468.38
2019-05-10T20:48:12.573Z,98472.17
2019-05-10T20:50:44.121Z,98472.17
2019-05-10T20:53:15.522Z,98468.73
2019-05-10T20:55:47.377Z,98467.84
2019-05-10T20:58:20.915Z,98467.84
2019-05-10T21:00:52.686Z,98445.96
2019-05-10T21:03:24.326Z,98445.96
2019-05-10T21:05:56.158Z,98440.89
2019-05-10T21:08:27.926Z,98440.89
2019-05-10T21:10:59.622Z,98435.66
2019-05-10T21:13:31.290Z,98439.42
2019-05-10T21:16:03.056Z,98435.47
2019-05-10T21:18:37.951Z,98433.34
2019-05-10T21:21:09.760Z,98426.73
2019-05-10T21:23:41.348Z,98426.73
2019-05-10T21:26:13.854Z,98435.83
2019-05-10T21:28:45.795Z,98437.19
2019-05-10T21:31:19.810Z,98441.84
2019-05-10T21:34:07.528Z,98441.84
2019-05-10T21:36:27.343Z,98438.96
2019-05-10T21:38:59.234Z,98441.02
2019-05-10T21:41:31.288Z,98441.02
2019-05-10T21:44:03.342Z,98456.58
2019-05-10T21:46:35.135Z,98456.58
2019-05-10T21:49:06.848Z,98453.69
2019-05-10T21:51:39.468Z,98449.06
2019-05-10T21:54:12.395Z,98449.06
2019-05-10T21:56:44.105Z,98451.52
2019-05-10T21:59:16.017Z,98466.71
2019-05-10T22:01:47.662Z,98473.02
2019-05-10T22:04:19.212Z,98471.61
2019-05-10T22:06:50.654Z,98471.61
2019-05-10T22:09:22.398Z,98472.53
2019-05-10T22:11:54.039Z,98472.53
2019-05-10T22:14:25.565Z,98471.56
2019-05-10T22:16:56.888Z,98471.56
2019-05-10T22:19:28.562Z,98481.53
2019-05-10T22:22:00.295Z,98481.53
2019-05-10T22:24:32.091Z,98488.70
2019-05-10T22:27:04.988Z,98496.16
2019-05-10T22:29:36.704Z,98493.18
2019-05-10T22:32:08.273Z,98489.22
2019-05-10T22:34:41.814Z,98489.22
2019-05-10T22:37:13.573Z,98475.41
2019-05-10T22:39:44.935Z,98463.59
2019-05-10T22:42:16.428Z,98460.54
2019-05-10T22:44:48.080Z,98473.67
2019-05-10T22:47:19.742Z,98489.94
2019-05-10T22:49:51.290Z,98493.54
2019-05-10T22:52:22.885Z,98502.00
2019-05-10T22:54:54.622Z,98502.00
2019-05-10T22:57:26.318Z,98499.92
2019-05-10T22:59:58.313Z,98499.92
2019-05-10T23:02:29.659Z,98506.16
2019-05-10T23:05:01.366Z,98506.16
2019-05-10T23:07:33.220Z,98506.50
2019-05-10T23:10:06.068Z,98502.53
2019-05-10T23:12:38.154Z,98511.86
2019-05-10T23:15:10.583Z,98511.86
2019-05-10T23:17:42.223Z,98518.40
2019-05-10T23:20:14.406Z,98519.48
2019-05-10T23:22:46.298Z,98526.03
2019-05-10T23:25:17.912Z,98526.03
2019-05-10T23:27:49.618Z,98535.36
2019-05-10T23:30:21.248Z,98535.36
2019-05-10T23:32:52.851Z,98521.86
2019-05-10T23:35:24.625Z,98521.86
2019-05-10T23:37:56.212Z,98520.86
2019-05-10T23:40:28.051Z,98530.06
2019-05-10T23:42:59.618Z,98530.06
2019-05-10T23:45:31.472Z,98535.15
2019-05-10T23:48:03.095Z,98548.51
2019-05-10T23:50:35.284Z,98535.00
2019-05-10T23:53:06.957Z,98535.00
2019-05-10T23:55:38.795Z,98538.18
2019-05-10T23:58:10.338Z,98536.86
